| time (UTC) | temp C | wind direction | speed KPH | gust KPH | rain 1hr cm | rain 24hr cm | rain mn cm | humidity % | barometer mb |
| 20260505184537 | 17 | 221 | 27.4 | 41.8 | 0.00 | 0.30 | 0.30 | 46 | 1014.5 |
| 20260505184026 | 17 | 235 | 19.3 | 41.8 | 0.00 | 0.30 | 0.30 | 45 | 1014.4 |
| 20260505183521 | 17 | 194 | 19.3 | 41.8 | 0.00 | 0.30 | 0.30 | 46 | 1014.7 |
| 20260505183036 | 17 | 217 | 22.5 | 45.1 | 0.00 | 0.30 | 0.30 | 43 | 1014.5 |
| 20260505182522 | 18 | 211 | 9.7 | 45.1 | 0.00 | 0.30 | 0.30 | 49 | 1014.3 |
| 20260505182019 | 17 | 229 | 16.1 | 37.0 | 0.00 | 0.30 | 0.30 | 46 | 1014.5 |
| 20260505181542 | 17 | 219 | 14.5 | 38.6 | 0.00 | 0.30 | 0.30 | 52 | 1014.5 |
| 20260505181023 | 17 | 195 | 19.3 | 38.6 | 0.00 | 0.30 | 0.30 | 50 | 1014.5 |
| 20260505180522 | 17 | 165 | 12.9 | 32.2 | 0.00 | 0.30 | 0.30 | 53 | 1014.6 |
| 20260505180039 | 17 | 232 | 12.9 | 32.2 | 0.00 | 0.30 | 0.30 | 51 | 1014.6 |
| 20260505175522 | 18 | 257 | 12.9 | 27.4 | 0.00 | 0.30 | 0.30 | 54 | 1014.9 |
| 20260505175019 | 17 | 125 | 11.3 | 27.4 | 0.00 | 0.30 | 0.30 | 53 | 1014.6 |
| 20260505174541 | 17 | 186 | 8.0 | 27.4 | 0.00 | 0.30 | 0.30 | 58 | 1014.8 |
| 20260505174018 | 17 | 142 | 12.9 | 27.4 | 0.00 | 0.30 | 0.30 | 57 | 1014.4 |
| 20260505173522 | 17 | 170 | 16.1 | 27.4 | 0.00 | 0.30 | 0.30 | 54 | 1014.9 |
| 20260505173035 | 17 | 172 | 8.0 | 32.2 | 0.00 | 0.30 | 0.30 | 58 | 1014.9 |
| 20260505172521 | 17 | 233 | 17.7 | 32.2 | 0.00 | 0.30 | 0.30 | 60 | 1014.9 |
| 20260505172022 | 16 | 198 | 9.7 | 30.6 | 0.00 | 0.30 | 0.30 | 61 | 1014.8 |
| 20260505171533 | 16 | 159 | 11.3 | 40.2 | 0.00 | 0.30 | 0.30 | 61 | 1014.8 |
| 20260505171023 | 16 | 199 | 12.9 | 40.2 | 0.00 | 0.30 | 0.30 | 64 | 1014.8 |
| 20260505170523 | 15 | 124 | 16.1 | 38.6 | 0.00 | 0.30 | 0.30 | 61 | 1014.7 |
| 20260505170045 | 15 | 167 | 17.7 | 35.4 | 0.00 | 0.30 | 0.30 | 64 | 1014.6 |
| 20260505165523 | 15 | 169 | 14.5 | 27.4 | 0.00 | 0.30 | 0.30 | 67 | 1014.8 |
| 20260505165019 | 15 | 162 | 12.9 | 24.1 | 0.00 | 0.30 | 0.30 | 66 | 1014.9 |
| 20260505164533 | 14 | 188 | 11.3 | 27.4 | 0.00 | 0.30 | 0.30 | 70 | 1014.8 |
| 20260505164024 | 13 | 189 | 9.7 | 29.0 | 0.03 | 0.30 | 0.30 | 68 | 1015.0 |
| 20260505163519 | 13 | 181 | 16.1 | 29.0 | 0.03 | 0.30 | 0.30 | 69 | 1015.0 |
| 20260505163037 | 13 | 170 | 12.9 | 22.5 | 0.03 | 0.30 | 0.30 | 72 | 1015.0 |
| 20260505162521 | 13 | 167 | 11.3 | 25.7 | 0.03 | 0.30 | 0.30 | 71 | 1014.9 |
| 20260505162022 | 12 | 155 | 11.3 | 25.7 | 0.03 | 0.30 | 0.30 | 75 | 1014.9 |
| 20260505161535 | 12 | 194 | 11.3 | 29.0 | 0.03 | 0.30 | 0.30 | 77 | 1015.0 |
| 20260505161022 | 12 | 173 | 14.5 | 29.0 | 0.05 | 0.30 | 0.30 | 77 | 1015.0 |
| 20260505160522 | 12 | 186 | 11.3 | 25.7 | 0.05 | 0.30 | 0.30 | 78 | 1014.8 |
| 20260505153037 | 13 | 152 | 16.1 | 33.8 | 0.23 | 0.28 | 0.28 | 75 | 1014.5 |
| 20260505152523 | 13 | 182 | 14.5 | 27.4 | 0.23 | 0.28 | 0.28 | 81 | 1014.6 |
| 20260505152022 | 12 | 175 | 11.3 | 24.1 | 0.25 | 0.28 | 0.28 | 79 | 1014.3 |
| 20260505151553 | 11 | 161 | 6.4 | 24.1 | 0.25 | 0.28 | 0.28 | 81 | 1014.1 |
| 20260505151022 | 11 | 145 | 12.9 | 24.1 | 0.23 | 0.25 | 0.25 | 79 | 1014.3 |
| 20260505150523 | 11 | 160 | 11.3 | 30.6 | 0.20 | 0.23 | 0.23 | 78 | 1014.5 |
| 20260505140522 | 12 | 148 | 8.0 | 17.7 | 0.03 | 0.03 | 0.03 | 69 | 1013.7 |
| 20260505125022 | 11 | 0 | 0.0 | 6.4 | 0.00 | 0.00 | 0.00 | 79 | 1013.9 |
| 20260505124541 | 11 | 168 | 3.2 | 9.7 | 0.00 | 0.00 | 0.00 | 78 | 1014.3 |
| 20260505124027 | 11 | 168 | 4.8 | 9.7 | 0.00 | 0.00 | 0.00 | 76 | 1014.1 |
| 20260505123522 | 11 | 115 | 1.6 | 11.3 | 0.00 | 0.00 | 0.00 | 77 | 1014.6 |
| 20260505123040 | 11 | 115 | 3.2 | 12.9 | 0.00 | 0.00 | 0.00 | 73 | 1014.5 |
| 20260505122522 | 12 | 118 | 4.8 | 14.5 | 0.00 | 0.00 | 0.00 | 72 | 1014.3 |
| 20260505122022 | 12 | 157 | 4.8 | 14.5 | 0.00 | 0.00 | 0.00 | 68 | 1014.3 |
| 20260505121537 | 12 | 141 | 6.4 | 14.5 | 0.00 | 0.00 | 0.00 | 67 | 1014.3 |
| 20260505121023 | 12 | 160 | 8.0 | 14.5 | 0.00 | 0.00 | 0.00 | 65 | 1014.1 |
| 20260505120524 | 12 | 145 | 8.0 | 17.7 | 0.00 | 0.00 | 0.00 | 65 | 1014.1 |
| 20260505120039 | 12 | 156 | 9.7 | 17.7 | 0.00 | 0.00 | 0.00 | 65 | 1014.0 |
| 20260505115521 | 12 | 163 | 6.4 | 12.9 | 0.00 | 0.00 | 0.00 | 65 | 1014.1 |
| 20260505115023 | 12 | 197 | 6.4 | 12.9 | 0.00 | 0.00 | 0.00 | 64 | 1014.2 |
| 20260505114541 | 12 | 168 | 4.8 | 9.7 | 0.00 | 0.00 | 0.00 | 62 | 1014.3 |
| 20260505114024 | 12 | 190 | 6.4 | 9.7 | 0.00 | 0.00 | 0.00 | 62 | 1014.3 |
| 20260505113522 | 12 | 199 | 4.8 | 9.7 | 0.00 | 0.00 | 0.00 | 61 | 1014.3 |
| 20260505113041 | 12 | 176 | 3.2 | 9.7 | 0.00 | 0.00 | 0.00 | 60 | 1014.6 |
| 20260505112522 | 13 | 167 | 3.2 | 9.7 | 0.00 | 0.00 | 0.00 | 60 | 1014.5 |
| 20260505112022 | 13 | 113 | 1.6 | 11.3 | 0.00 | 0.00 | 0.00 | 59 | 1014.5 |
| 20260505111541 | 13 | 113 | 3.2 | 11.3 | 0.00 | 0.00 | 0.00 | 57 | 1014.7 |
| 20260505111022 | 13 | 173 | 4.8 | 11.3 | 0.00 | 0.00 | 0.00 | 53 | 1014.7 |
| 20260505110523 | 13 | 208 | 8.0 | 11.3 | 0.00 | 0.00 | 0.00 | 52 | 1014.7 |
| 20260505102022 | 13 | 214 | 1.6 | 4.8 | 0.00 | 0.00 | 0.00 | 53 | 1015.0 |
| 20260505101541 | 13 | 0 | 1.6 | 6.4 | 0.00 | 0.00 | 0.00 | 49 | 1014.7 |
| 20260505101022 | 13 | 214 | 1.6 | 9.7 | 0.00 | 0.00 | 0.00 | 49 | 1014.7 |
| 20260505100523 | 13 | 214 | 4.8 | 9.7 | 0.00 | 0.00 | 0.00 | 50 | 1014.7 |
| 20260505100035 | 13 | 203 | 6.4 | 9.7 | 0.00 | 0.00 | 0.00 | 50 | 1014.9 |
| 20260505095522 | 13 | 217 | 3.2 | 11.3 | 0.00 | 0.00 | 0.00 | 50 | 1014.7 |
| 20260505095022 | 13 | 207 | 6.4 | 11.3 | 0.00 | 0.00 | 0.00 | 51 | 1014.9 |
| 20260505094537 | 13 | 222 | 8.0 | 11.3 | 0.00 | 0.00 | 0.00 | 51 | 1014.9 |
| 20260505094022 | 13 | 205 | 6.4 | 9.7 | 0.00 | 0.00 | 0.00 | 52 | 1014.9 |
| 20260505093522 | 13 | 200 | 6.4 | 9.7 | 0.00 | 0.00 | 0.00 | 53 | 1015.1 |
| 20260505093040 | 13 | 163 | 4.8 | 9.7 | 0.00 | 0.00 | 0.00 | 52 | 1015.0 |
| 20260505092522 | 13 | 159 | 3.2 | 9.7 | 0.00 | 0.00 | 0.00 | 51 | 1015.1 |
| 20260505092022 | 14 | 210 | 0.0 | 6.4 | 0.00 | 0.00 | 0.00 | 48 | 1015.1 |
| 20260505091538 | 14 | 210 | 1.6 | 6.4 | 0.00 | 0.00 | 0.00 | 47 | 1015.1 |
| 20260505091024 | 14 | 210 | 1.6 | 6.4 | 0.00 | 0.00 | 0.00 | 47 | 1015.1 |
| 20260505090522 | 14 | 0 | 3.2 | 8.0 | 0.00 | 0.00 | 0.00 | 46 | 1015.1 |
| 20260505090051 | 14 | 210 | 3.2 | 9.7 | 0.00 | 0.00 | 0.00 | 47 | 1015.1 |
| 20260505085524 | 14 | 210 | 3.2 | 9.7 | 0.00 | 0.00 | 0.00 | 46 | 1015.1 |
| 20260505085022 | 14 | 171 | 4.8 | 9.7 | 0.00 | 0.00 | 0.00 | 47 | 1015.4 |
| 20260505084537 | 14 | 171 | 4.8 | 9.7 | 0.00 | 0.00 | 0.00 | 45 | 1015.3 |
| 20260505084022 | 14 | 0 | 1.6 | 9.7 | 0.00 | 0.00 | 0.00 | 44 | 1015.1 |
| 20260505083523 | 13 | 153 | 3.2 | 8.0 | 0.00 | 0.00 | 0.00 | 46 | 1015.1 |
| 20260505083039 | 13 | 203 | 3.2 | 11.3 | 0.00 | 0.00 | 0.00 | 48 | 1015.2 |
| 20260505082522 | 13 | 203 | 4.8 | 11.3 | 0.00 | 0.00 | 0.00 | 48 | 1015.3 |
| 20260505082019 | 13 | 212 | 4.8 | 8.0 | 0.00 | 0.00 | 0.00 | 51 | 1015.7 |
| 20260505081542 | 13 | 196 | 3.2 | 11.3 | 0.00 | 0.00 | 0.00 | 53 | 1015.8 |
| 20260505081023 | 13 | 189 | 6.4 | 11.3 | 0.00 | 0.00 | 0.00 | 52 | 1015.8 |
| 20260505080522 | 13 | 189 | 3.2 | 9.7 | 0.00 | 0.00 | 0.00 | 52 | 1015.7 |
| 20260505080033 | 13 | 181 | 4.8 | 9.7 | 0.00 | 0.00 | 0.00 | 51 | 1015.5 |
| 20260505075522 | 13 | 180 | 4.8 | 11.3 | 0.00 | 0.00 | 0.00 | 50 | 1015.6 |
| 20260505075022 | 13 | 182 | 6.4 | 11.3 | 0.00 | 0.00 | 0.00 | 50 | 1015.5 |
| 20260505074535 | 13 | 202 | 6.4 | 12.9 | 0.00 | 0.00 | 0.00 | 51 | 1015.6 |
| 20260505074022 | 13 | 173 | 4.8 | 12.9 | 0.00 | 0.00 | 0.00 | 52 | 1015.7 |
| 20260505073523 | 13 | 157 | 4.8 | 9.7 | 0.00 | 0.00 | 0.00 | 50 | 1015.8 |
| 20260505073038 | 13 | 208 | 6.4 | 9.7 | 0.00 | 0.00 | 0.00 | 50 | 1015.8 |
| 20260505072523 | 13 | 177 | 6.4 | 9.7 | 0.00 | 0.00 | 0.00 | 49 | 1015.7 |
| 20260505072023 | 14 | 177 | 4.8 | 9.7 | 0.00 | 0.00 | 0.00 | 49 | 1015.6 |
| 20260505071536 | 14 | 0 | 1.6 | 8.0 | 0.00 | 0.00 | 0.00 | 48 | 1015.6 |
| 20260505071022 | 14 | 212 | 6.4 | 9.7 | 0.00 | 0.00 | 0.00 | 49 | 1015.8 |
| 20260505070525 | 14 | 219 | 4.8 | 9.7 | 0.00 | 0.00 | 0.00 | 48 | 1015.8 |
| 20260505070042 | 14 | 211 | 6.4 | 9.7 | 0.00 | 0.00 | 0.00 | 48 | 1015.7 |
| 20260505065524 | 14 | 190 | 3.2 | 8.0 | 0.00 | 0.00 | 0.00 | 48 | 1015.8 |
| 20260505065022 | 14 | 207 | 4.8 | 8.0 | 0.00 | 0.00 | 0.00 | 47 | 1015.8 |
| 20260505064536 | 14 | 213 | 3.2 | 8.0 | 0.00 | 0.00 | 0.00 | 46 | 1015.8 |
| 20260505064022 | 14 | 213 | 3.2 | 8.0 | 0.00 | 0.00 | 0.00 | 47 | 1015.8 |
| 20260505063522 | 14 | 213 | 6.4 | 9.7 | 0.00 | 0.00 | 0.00 | 46 | 1015.8 |
| 20260505063042 | 14 | 203 | 4.8 | 9.7 | 0.00 | 0.00 | 0.00 | 46 | 1015.8 |
| 20260505062524 | 14 | 212 | 6.4 | 12.9 | 0.00 | 0.00 | 0.00 | 46 | 1015.9 |
| 20260505062023 | 14 | 214 | 8.0 | 12.9 | 0.00 | 0.00 | 0.00 | 46 | 1016.0 |
| 20260505061543 | 14 | 173 | 3.2 | 8.0 | 0.00 | 0.00 | 0.00 | 47 | 1015.9 |
| 20260505061027 | 15 | 0 | 0.0 | 4.8 | 0.00 | 0.00 | 0.00 | 46 | 1015.7 |
| 20260505060522 | 15 | 178 | 0.0 | 4.8 | 0.00 | 0.00 | 0.00 | 46 | 1015.9 |
| 20260505060037 | 15 | 0 | 1.6 | 6.4 | 0.00 | 0.00 | 0.00 | 47 | 1016.1 |
| 20260505055523 | 15 | 178 | 1.6 | 8.0 | 0.00 | 0.00 | 0.00 | 46 | 1015.9 |
| 20260505055023 | 15 | 178 | 4.8 | 14.5 | 0.00 | 0.00 | 0.00 | 46 | 1016.0 |
| 20260505054540 | 15 | 178 | 3.2 | 14.5 | 0.00 | 0.00 | 0.00 | 45 | 1016.1 |
| 20260505054026 | 15 | 104 | 6.4 | 16.1 | 0.00 | 0.00 | 0.00 | 42 | 1015.9 |
| 20260505053522 | 15 | 243 | 3.2 | 16.1 | 0.00 | 0.00 | 0.00 | 39 | 1015.9 |
| 20260505053043 | 15 | 271 | 6.4 | 12.9 | 0.00 | 0.00 | 0.00 | 42 | 1015.6 |
| 20260505052522 | 15 | 238 | 6.4 | 20.9 | 0.00 | 0.00 | 0.00 | 41 | 1015.7 |
| 20260505052022 | 15 | 174 | 8.0 | 20.9 | 0.00 | 0.00 | 0.00 | 41 | 1015.5 |
| 20260505051537 | 15 | 171 | 8.0 | 17.7 | 0.00 | 0.00 | 0.00 | 40 | 1015.8 |
| 20260505051022 | 16 | 176 | 9.7 | 17.7 | 0.00 | 0.00 | 0.00 | 39 | 1016.0 |
| 20260505050524 | 17 | 165 | 11.3 | 17.7 | 0.00 | 0.00 | 0.00 | 35 | 1015.9 |
| 20260505041533 | 18 | 53 | 4.8 | 17.7 | 0.00 | 0.00 | 0.00 | 29 | 1016.1 |
| 20260505041022 | 17 | 242 | 4.8 | 32.2 | 0.00 | 0.00 | 0.00 | 30 | 1016.0 |
| 20260505040522 | 17 | 189 | 9.7 | 32.2 | 0.00 | 0.00 | 0.00 | 30 | 1015.9 |
| 20260505040041 | 17 | 325 | 6.4 | 30.6 | 0.00 | 0.00 | 0.00 | 30 | 1015.8 |
| 20260505035522 | 17 | 271 | 17.7 | 30.6 | 0.00 | 0.00 | 0.00 | 30 | 1015.8 |
| 20260505035022 | 17 | 265 | 17.7 | 30.6 | 0.00 | 0.00 | 0.00 | 30 | 1015.7 |
| 20260505034534 | 18 | 293 | 16.1 | 35.4 | 0.00 | 0.00 | 0.00 | 30 | 1015.7 |
| 20260505034023 | 18 | 329 | 22.5 | 35.4 | 0.00 | 0.00 | 0.00 | 30 | 1015.6 |
| 20260505033523 | 18 | 313 | 19.3 | 33.8 | 0.00 | 0.00 | 0.00 | 30 | 1015.5 |
| 20260505033100 | 18 | 305 | 16.1 | 29.0 | 0.00 | 0.00 | 0.00 | 30 | 1015.5 |
| 20260505032522 | 18 | 301 | 16.1 | 27.4 | 0.00 | 0.00 | 0.00 | 30 | 1015.4 |
| 20260505032022 | 18 | 294 | 19.3 | 27.4 | 0.00 | 0.00 | 0.00 | 30 | 1015.3 |
| 20260505031538 | 18 | 335 | 14.5 | 24.1 | 0.00 | 0.00 | 0.00 | 30 | 1015.2 |
| 20260505031022 | 18 | 319 | 14.5 | 27.4 | 0.00 | 0.00 | 0.00 | 30 | 1015.3 |
| 20260505030522 | 18 | 329 | 16.1 | 27.4 | 0.00 | 0.00 | 0.00 | 30 | 1015.3 |
| 20260505030042 | 18 | 325 | 14.5 | 22.5 | 0.00 | 0.00 | 0.00 | 30 | 1015.2 |
| 20260505025524 | 18 | 328 | 14.5 | 24.1 | 0.00 | 0.00 | 0.00 | 30 | 1015.0 |
| 20260505025021 | 18 | 332 | 17.7 | 24.1 | 0.00 | 0.00 | 0.00 | 30 | 1014.9 |
| 20260505024536 | 18 | 311 | 14.5 | 27.4 | 0.00 | 0.00 | 0.00 | 30 | 1015.0 |
| 20260505024023 | 18 | 336 | 16.1 | 29.0 | 0.00 | 0.00 | 0.00 | 29 | 1015.0 |
| 20260505023526 | 18 | 327 | 16.1 | 29.0 | 0.00 | 0.00 | 0.00 | 29 | 1015.2 |
| 20260505023044 | 18 | 317 | 14.5 | 22.5 | 0.00 | 0.00 | 0.00 | 29 | 1015.3 |
| 20260505022527 | 19 | 327 | 14.5 | 24.1 | 0.00 | 0.00 | 0.00 | 29 | 1015.3 |
| 20260505022023 | 19 | 339 | 14.5 | 24.1 | 0.00 | 0.00 | 0.00 | 28 | 1015.1 |
| 20260505021536 | 18 | 345 | 16.1 | 24.1 | 0.00 | 0.00 | 0.00 | 29 | 1015.1 |
| 20260505021026 | 18 | 325 | 12.9 | 24.1 | 0.00 | 0.00 | 0.00 | 29 | 1015.1 |
| 20260505020522 | 19 | 331 | 9.7 | 19.3 | 0.00 | 0.00 | 0.00 | 30 | 1014.9 |
| 20260505020034 | 19 | 342 | 11.3 | 16.1 | 0.00 | 0.00 | 0.00 | 29 | 1014.9 |
| 20260505015522 | 19 | 350 | 1.6 | 12.9 | 0.00 | 0.00 | 0.00 | 29 | 1014.9 |
| 20260505015021 | 19 | 40 | 3.2 | 12.9 | 0.00 | 0.00 | 0.00 | 27 | 1014.9 |
| 20260505014539 | 20 | 5 | 3.2 | 9.7 | 0.00 | 0.00 | 0.00 | 28 | 1015.0 |
| 20260505014022 | 20 | 100 | 0.0 | 12.9 | 0.00 | 0.00 | 0.00 | 27 | 1015.2 |
| 20260505013522 | 20 | 111 | 4.8 | 12.9 | 0.00 | 0.00 | 0.00 | 24 | 1015.1 |
| 20260505013037 | 20 | 280 | 4.8 | 12.9 | 0.00 | 0.00 | 0.00 | 23 | 1015.1 |
| 20260505012522 | 21 | 81 | 3.2 | 19.3 | 0.00 | 0.00 | 0.00 | 21 | 1015.0 |
| 20260505012023 | 21 | 157 | 8.0 | 20.9 | 0.00 | 0.00 | 0.00 | 20 | 1015.1 |
| 20260505011536 | 21 | 188 | 8.0 | 20.9 | 0.00 | 0.00 | 0.00 | 21 | 1015.1 |
| 20260505011022 | 21 | 130 | 4.8 | 12.9 | 0.00 | 0.00 | 0.00 | 20 | 1015.0 |
| 20260505010522 | 21 | 157 | 3.2 | 16.1 | 0.00 | 0.00 | 0.00 | 20 | 1015.0 |
| 20260505010040 | 21 | 262 | 4.8 | 25.7 | 0.00 | 0.00 | 0.00 | 20 | 1015.1 |
| 20260505005522 | 21 | 186 | 4.8 | 25.7 | 0.00 | 0.00 | 0.00 | 19 | 1015.1 |
| 20260505005023 | 21 | 266 | 8.0 | 14.5 | 0.00 | 0.00 | 0.00 | 19 | 1015.1 |
| 20260505004543 | 21 | 0 | 1.6 | 12.9 | 0.00 | 0.00 | 0.00 | 20 | 1014.9 |
| 20260505004023 | 22 | 136 | 8.0 | 19.3 | 0.00 | 0.00 | 0.00 | 20 | 1015.0 |
| 20260505003522 | 22 | 0 | 3.2 | 19.3 | 0.00 | 0.00 | 0.00 | 19 | 1015.1 |
| 20260505003038 | 22 | 9 | 8.0 | 16.1 | 0.00 | 0.00 | 0.00 | 19 | 1014.9 |
| 20260505002522 | 22 | 236 | 1.6 | 22.5 | 0.00 | 0.00 | 0.00 | 19 | 1014.9 |
| 20260505002023 | 22 | 158 | 8.0 | 22.5 | 0.00 | 0.00 | 0.00 | 18 | 1014.8 |
| 20260505001537 | 22 | 205 | 8.0 | 19.3 | 0.00 | 0.00 | 0.00 | 19 | 1014.6 |
| 20260505001022 | 23 | 182 | 6.4 | 17.7 | 0.00 | 0.00 | 0.00 | 18 | 1014.6 |
| 20260505000526 | 22 | 129 | 8.0 | 24.1 | 0.00 | 0.00 | 0.00 | 19 | 1014.5 |
| 20260505000037 | 22 | 0 | 6.4 | 24.1 | 0.00 | 0.00 | 0.00 | 18 | 1014.6 |
| 20260504235523 | 22 | 252 | 9.7 | 16.1 | 0.00 | 0.00 | 0.00 | 18 | 1014.6 |
| 20260504235022 | 23 | 179 | 8.0 | 19.3 | 0.00 | 0.00 | 0.00 | 19 | 1014.5 |
| 20260504234548 | 23 | 350 | 9.7 | 24.1 | 0.00 | 0.00 | 0.00 | 18 | 1014.6 |
| 20260504234022 | 23 | 165 | 9.7 | 30.6 | 0.00 | 0.00 | 0.00 | 17 | 1014.4 |
| 20260504233523 | 23 | 151 | 9.7 | 30.6 | 0.00 | 0.00 | 0.00 | 18 | 1014.5 |
| 20260504233035 | 23 | 132 | 11.3 | 29.0 | 0.00 | 0.00 | 0.00 | 18 | 1014.6 |
| 20260504232523 | 23 | 190 | 16.1 | 33.8 | 0.00 | 0.00 | 0.00 | 18 | 1014.4 |
| 20260504232022 | 23 | 271 | 16.1 | 33.8 | 0.00 | 0.00 | 0.00 | 18 | 1014.3 |
| 20260504231550 | 23 | 177 | 14.5 | 33.8 | 0.00 | 0.00 | 0.00 | 18 | 1014.3 |
| 20260504231022 | 24 | 193 | 11.3 | 25.7 | 0.00 | 0.00 | 0.00 | 18 | 1014.2 |
| 20260504230522 | 24 | 163 | 6.4 | 27.4 | 0.00 | 0.00 | 0.00 | 17 | 1014.2 |
| 20260504230037 | 24 | 157 | 12.9 | 27.4 | 0.00 | 0.00 | 0.00 | 17 | 1014.5 |
| 20260504225525 | 24 | 127 | 11.3 | 20.9 | 0.00 | 0.00 | 0.00 | 16 | 1014.6 |
| 20260504225024 | 24 | 331 | 6.4 | 32.2 | 0.00 | 0.00 | 0.00 | 18 | 1014.7 |
| 20260504224536 | 24 | 142 | 12.9 | 32.2 | 0.00 | 0.00 | 0.00 | 18 | 1014.9 |
| 20260504224022 | 24 | 192 | 17.7 | 32.2 | 0.00 | 0.00 | 0.00 | 18 | 1014.6 |
| 20260504223524 | 24 | 244 | 14.5 | 29.0 | 0.00 | 0.00 | 0.00 | 18 | 1014.4 |
| 20260504223033 | 24 | 146 | 11.3 | 22.5 | 0.00 | 0.00 | 0.00 | 18 | 1014.4 |
| 20260504222526 | 24 | 275 | 4.8 | 25.7 | 0.00 | 0.00 | 0.00 | 19 | 1014.5 |
| 20260504222022 | 24 | 44 | 9.7 | 30.6 | 0.00 | 0.00 | 0.00 | 19 | 1014.4 |
| 20260504221533 | 25 | 165 | 14.5 | 30.6 | 0.00 | 0.00 | 0.00 | 19 | 1014.4 |
| 20260504221027 | 25 | 186 | 16.1 | 30.6 | 0.00 | 0.00 | 0.00 | 19 | 1014.6 |
| 20260504220522 | 24 | 130 | 8.0 | 16.1 | 0.00 | 0.00 | 0.00 | 20 | 1014.7 |
| 20260504220040 | 25 | 135 | 4.8 | 24.1 | 0.00 | 0.00 | 0.00 | 20 | 1014.9 |
| 20260504215522 | 23 | 246 | 6.4 | 38.6 | 0.00 | 0.00 | 0.00 | 20 | 1014.9 |
| 20260504215023 | 24 | 211 | 17.7 | 38.6 | 0.00 | 0.00 | 0.00 | 21 | 1015.2 |
| 20260504214540 | 24 | 163 | 17.7 | 38.6 | 0.00 | 0.00 | 0.00 | 22 | 1014.8 |
| 20260504214024 | 24 | 173 | 17.7 | 38.6 | 0.00 | 0.00 | 0.00 | 21 | 1014.9 |
| 20260504213526 | 24 | 155 | 22.5 | 38.6 | 0.00 | 0.00 | 0.00 | 21 | 1015.0 |
| 20260504213036 | 24 | 189 | 11.3 | 32.2 | 0.00 | 0.00 | 0.00 | 21 | 1015.1 |
| 20260504212522 | 24 | 217 | 17.7 | 32.2 | 0.00 | 0.00 | 0.00 | 21 | 1015.1 |
| 20260504212021 | 24 | 141 | 11.3 | 29.0 | 0.00 | 0.00 | 0.00 | 21 | 1015.2 |
| 20260504211532 | 24 | 135 | 11.3 | 32.2 | 0.00 | 0.00 | 0.00 | 21 | 1015.3 |
| 20260504211022 | 24 | 220 | 6.4 | 38.6 | 0.00 | 0.00 | 0.00 | 21 | 1015.2 |
| 20260504210525 | 25 | 184 | 19.3 | 38.6 | 0.00 | 0.00 | 0.00 | 20 | 1015.4 |
| 20260504210105 | 25 | 179 | 12.9 | 43.5 | 0.00 | 0.00 | 0.00 | 20 | 1015.1 |
| 20260504205526 | 25 | 130 | 14.5 | 43.5 | 0.00 | 0.00 | 0.00 | 19 | 1015.4 |
| 20260504205022 | 26 | 165 | 11.3 | 29.0 | 0.00 | 0.00 | 0.00 | 20 | 1015.3 |
| 20260504204618 | 25 | 142 | 9.7 | 33.8 | 0.00 | 0.00 | 0.00 | 22 | 1015.6 |
| 20260504204022 | 25 | 180 | 17.7 | 33.8 | 0.00 | 0.00 | 0.00 | 20 | 1015.5 |
| 20260504203522 | 25 | 180 | 17.7 | 37.0 | 0.00 | 0.00 | 0.00 | 20 | 1015.5 |
| 20260504203038 | 25 | 192 | 19.3 | 37.0 | 0.00 | 0.00 | 0.00 | 20 | 1015.6 |
| 20260504202522 | 25 | 173 | 12.9 | 29.0 | 0.00 | 0.00 | 0.00 | 21 | 1015.6 |
| 20260504202021 | 24 | 134 | 6.4 | 29.0 | 0.00 | 0.00 | 0.00 | 21 | 1015.6 |
| 20260504201536 | 24 | 141 | 17.7 | 29.0 | 0.00 | 0.00 | 0.00 | 20 | 1015.7 |
| 20260504201023 | 24 | 176 | 16.1 | 27.4 | 0.00 | 0.00 | 0.00 | 19 | 1015.7 |
| 20260504200524 | 25 | 126 | 9.7 | 29.0 | 0.00 | 0.00 | 0.00 | 21 | 1015.7 |
| 20260504200039 | 24 | 123 | 12.9 | 35.4 | 0.00 | 0.00 | 0.00 | 20 | 1015.8 |
| 20260504195522 | 25 | 144 | 16.1 | 35.4 | 0.00 | 0.00 | 0.00 | 20 | 1015.9 |
| 20260504195023 | 23 | 164 | 8.0 | 32.2 | 0.00 | 0.00 | 0.00 | 21 | 1015.9 |
| 20260504194545 | 24 | 194 | 14.5 | 32.2 | 0.00 | 0.00 | 0.00 | 20 | 1016.0 |
| 20260504194025 | 25 | 225 | 9.7 | 38.6 | 0.00 | 0.00 | 0.00 | 21 | 1016.0 |
| 20260504193523 | 23 | 101 | 19.3 | 38.6 | 0.00 | 0.00 | 0.00 | 18 | 1015.9 |
| 20260504193039 | 24 | 250 | 14.5 | 35.4 | 0.00 | 0.00 | 0.00 | 19 | 1015.9 |
| 20260504192526 | 23 | 126 | 20.9 | 35.4 | 0.00 | 0.00 | 0.00 | 19 | 1016.1 |
| 20260504192022 | 24 | 117 | 17.7 | 30.6 | 0.00 | 0.00 | 0.00 | 21 | 1016.3 |
| 20260504191543 | 23 | 113 | 12.9 | 30.6 | 0.00 | 0.00 | 0.00 | 23 | 1016.3 |
| 20260504191022 | 23 | 102 | 17.7 | 32.2 | 0.00 | 0.00 | 0.00 | 21 | 1016.1 |
| 20260504190522 | 23 | 132 | 20.9 | 32.2 | 0.00 | 0.00 | 0.00 | 24 | 1016.4 |
| 20260504190042 | 24 | 121 | 16.1 | 37.0 | 0.00 | 0.00 | 0.00 | 23 | 1016.3 |
| 20260504185521 | 23 | 148 | 20.9 | 40.2 | 0.00 | 0.00 | 0.00 | 21 | 1016.3 |
| 20260504185022 | 23 | 163 | 17.7 | 40.2 | 0.00 | 0.00 | 0.00 | 20 | 1016.4 |